Time;durP1;ratioP1;P1;durP2;ratioP2;P2;SDS_P1;SDS_P2;PMS_P1;PMS_P2;Temp;Humidity;BMP_temperature;BMP_pressure;BME280_temperature;BME280_humidity;BME280_pressure;Samples;Min_cycle;Max_cycle;Signal;HPM_P1;HPM_P2
2022/07/23 00:00:17;;;;;;;9.65;6.30;;;20.10;99.90;;;;;;5087840;22;20056;-60
2022/07/23 00:03:34;;;;;;;10.50;6.05;;;20.00;99.90;;;;;;5054056;28;20053;-60
2022/07/23 00:06:00;;;;;;;8.57;6.15;;;20.00;99.90;;;;;;5068618;28;20060;-59
2022/07/23 00:08:28;;;;;;;10.48;6.47;;;20.00;99.90;;;;;;5063450;28;20457;-60
2022/07/23 00:10:55;;;;;;;10.68;6.95;;;20.00;99.90;;;;;;5056104;28;20049;-59
2022/07/23 00:13:21;;;;;;;8.63;6.43;;;20.00;99.90;;;;;;5058794;28;20503;-59
2022/07/23 00:15:48;;;;;;;11.30;7.55;;;20.00;99.90;;;;;;5063823;28;20095;-59
2022/07/23 00:18:15;;;;;;;9.85;6.63;;;19.90;99.90;;;;;;5071280;28;20036;-60
2022/07/23 00:20:41;;;;;;;10.07;6.68;;;19.90;99.90;;;;;;5056846;28;20041;-60
2022/07/23 00:23:08;;;;;;;11.05;6.15;;;19.80;99.90;;;;;;5063413;28;20059;-59
2022/07/23 00:25:35;;;;;;;14.10;6.65;;;19.80;99.90;;;;;;5071785;28;20048;-60
2022/07/23 00:28:03;;;;;;;11.23;7.07;;;19.90;99.90;;;;;;5062939;28;20040;-59
2022/07/23 00:30:31;;;;;;;11.57;7.38;;;19.80;99.90;;;;;;5056141;28;20493;-59
2022/07/23 00:33:04;;;;;;;11.07;7.18;;;19.70;99.90;;;;;;5062723;28;20155;-59
2022/07/23 00:35:33;;;;;;;11.00;6.68;;;19.70;99.90;;;;;;5042543;28;20041;-59
2022/07/23 00:38:01;;;;;;;12.65;7.32;;;19.70;99.90;;;;;;5061305;28;20051;-59
2022/07/23 00:40:29;;;;;;;7.60;5.93;;;19.80;99.90;;;;;;5052406;28;20049;-59
2022/07/23 00:42:56;;;;;;;11.10;6.13;;;19.80;99.90;;;;;;5062387;28;20056;-59
2022/07/23 00:45:23;;;;;;;;;;;19.90;99.90;;;;;;5054521;28;20041;-59
2022/07/23 00:47:50;;;;;;;8.48;6.05;;;19.90;99.90;;;;;;5061366;28;19924;-59
2022/07/23 00:50:17;;;;;;;8.32;6.55;;;19.90;99.90;;;;;;5057796;28;20041;-59
2022/07/23 00:52:44;;;;;;;9.50;6.45;;;19.90;99.90;;;;;;5063021;28;20052;-61
2022/07/23 00:55:11;;;;;;;;;;;19.90;99.90;;;;;;5072155;28;20051;-61
2022/07/23 00:57:39;;;;;;;9.50;6.85;;;19.80;99.90;;;;;;5070187;28;19970;-61
2022/07/23 01:00:09;;;;;;;10.40;7.15;;;19.80;99.90;;;;;;5069758;28;20139;-61
2022/07/23 01:02:37;;;;;;;7.72;5.95;;;19.80;99.90;;;;;;5071710;28;20044;-61
2022/07/23 01:05:04;;;;;;;9.52;5.50;;;19.70;99.90;;;;;;5070301;28;20064;-60
2022/07/23 01:07:31;;;;;;;8.52;6.35;;;19.80;99.90;;;;;;5069626;28;20045;-60
2022/07/23 01:09:59;;;;;;;12.15;6.10;;;19.80;99.90;;;;;;5062580;28;20047;-60
2022/07/23 01:12:26;;;;;;;7.20;5.30;;;19.80;99.90;;;;;;5071551;28;20121;-60
2022/07/23 01:14:57;;;;;;;10.48;6.15;;;19.80;99.90;;;;;;5070304;28;20051;-60
2022/07/23 01:17:25;;;;;;;7.75;5.35;;;19.80;99.90;;;;;;5055169;28;20045;-60
2022/07/23 01:19:52;;;;;;;8.70;5.70;;;19.90;99.90;;;;;;5049783;28;20041;-60
2022/07/23 01:22:19;;;;;;;;;;;19.90;99.90;;;;;;5051696;28;20051;-60
2022/07/23 01:24:47;;;;;;;8.45;5.85;;;19.90;99.90;;;;;;5069607;28;19952;-60
2022/07/23 01:27:17;;;;;;;12.98;6.65;;;19.90;99.90;;;;;;5061721;28;20045;-59
2022/07/23 01:29:48;;;;;;;9.88;6.43;;;19.70;99.90;;;;;;5069723;28;20504;-60
2022/07/23 01:32:18;;;;;;;10.80;7.07;;;19.60;99.90;;;;;;5070165;28;20052;-60
2022/07/23 01:34:45;;;;;;;12.07;6.32;;;19.60;99.90;;;;;;5066745;28;20505;-60
2022/07/23 01:37:12;;;;;;;11.32;6.88;;;19.50;99.90;;;;;;5062870;28;20047;-60
2022/07/23 01:39:39;;;;;;;10.30;6.88;;;19.50;99.90;;;;;;5069655;28;20071;-59
2022/07/23 01:42:06;;;;;;;;;;;19.50;99.90;;;;;;5070135;28;20051;-60
2022/07/23 01:44:33;;;;;;;8.60;5.78;;;19.50;99.90;;;;;;5061730;28;20438;-60
2022/07/23 01:47:00;;;;;;;;;;;19.60;99.90;;;;;;5069680;28;20063;-60
2022/07/23 01:49:28;;;;;;;9.32;6.60;;;19.70;99.90;;;;;;5069601;28;19960;-60
2022/07/23 01:52:13;;;;;;;10.88;6.47;;;19.70;99.90;;;;;;5070073;28;20416;-61
2022/07/23 01:54:43;;;;;;;8.15;6.05;;;19.80;99.90;;;;;;5063795;28;20104;-60
2022/07/23 01:57:11;;;;;;;8.68;6.28;;;19.80;99.90;;;;;;5069820;28;20040;-61
2022/07/23 01:59:39;;;;;;;8.40;5.68;;;19.90;99.90;;;;;;5069328;28;20049;-61
2022/07/23 02:02:06;;;;;;;9.27;5.45;;;19.90;99.90;;;;;;5064968;28;20060;-61
2022/07/23 02:04:36;;;;;;;8.25;5.78;;;20.00;99.90;;;;;;5059226;28;20090;-61
2022/07/23 02:07:04;;;;;;;8.95;6.00;;;20.00;99.90;;;;;;5049742;28;20459;-61
2022/07/23 02:09:31;;;;;;;9.43;6.28;;;20.00;99.90;;;;;;5049825;28;20849;-61
2022/07/23 02:11:58;;;;;;;8.10;5.63;;;20.00;99.90;;;;;;5065554;28;20501;-60
2022/07/23 02:14:26;;;;;;;7.60;5.68;;;19.90;99.90;;;;;;5056119;28;20770;-61
2022/07/23 02:16:53;;;;;;;8.85;6.43;;;19.90;99.90;;;;;;5059303;28;20040;-61
2022/07/23 02:19:20;;;;;;;12.70;6.22;;;19.80;99.90;;;;;;5049720;28;20037;-60
2022/07/23 02:21:46;;;;;;;9.52;6.68;;;19.70;99.90;;;;;;5059777;28;20037;-61
2022/07/23 02:24:13;;;;;;;9.18;6.70;;;19.60;99.90;;;;;;5050903;28;20045;-61
2022/07/23 02:26:41;;;;;;;8.05;5.97;;;19.60;99.90;;;;;;5053397;28;20143;-61
2022/07/23 02:29:09;;;;;;;8.98;6.82;;;19.60;99.90;;;;;;5060957;28;20076;-60
2022/07/23 02:31:35;;;;;;;13.15;6.50;;;19.50;99.90;;;;;;5070474;28;20044;-60
2022/07/23 02:34:02;;;;;;;8.50;6.13;;;19.50;99.90;;;;;;5068942;28;20135;-60
2022/07/23 02:36:30;;;;;;;12.80;6.80;;;19.50;99.90;;;;;;5061419;28;20057;-61
2022/07/23 02:38:58;;;;;;;9.27;6.03;;;19.60;99.90;;;;;;5069778;28;20041;-61
2022/07/23 02:41:28;;;;;;;10.88;6.70;;;19.70;99.90;;;;;;5055912;28;20072;-60
2022/07/23 02:43:55;;;;;;;12.70;7.20;;;19.70;99.90;;;;;;5070109;28;20045;-61
2022/07/23 02:46:22;;;;;;;8.85;6.80;;;19.60;99.90;;;;;;5066967;28;20068;-61
2022/07/23 02:48:49;;;;;;;7.72;6.22;;;19.60;99.90;;;;;;5072670;28;20052;-61
2022/07/23 02:51:16;;;;;;;9.85;6.38;;;19.60;99.90;;;;;;5070114;28;20056;-61
2022/07/23 02:53:50;;;;;;;11.48;6.68;;;19.60;99.90;;;;;;5069131;28;20060;-61
2022/07/23 02:56:17;;;;;;;9.45;6.65;;;19.60;99.90;;;;;;5052644;28;20045;-60
2022/07/23 02:58:44;;;;;;;9.30;6.32;;;19.60;99.90;;;;;;5053882;28;20037;-60
2022/07/23 03:01:13;;;;;;;9.13;6.72;;;19.60;99.90;;;;;;5064035;28;20507;-60
2022/07/23 03:03:40;;;;;;;11.80;6.68;;;19.60;99.90;;;;;;5072475;28;20044;-60
2022/07/23 03:06:06;;;;;;;10.88;7.20;;;19.60;99.90;;;;;;5094113;28;20040;-61
2022/07/23 03:08:34;;;;;;;9.02;6.68;;;19.60;99.90;;;;;;5075093;28;20048;-61
2022/07/23 03:11:01;;;;;;;8.55;6.28;;;19.50;99.90;;;;;;5066728;28;20688;-60
2022/07/23 03:13:29;;;;;;;;;;;19.50;99.90;;;;;;5059599;28;20089;-60
2022/07/23 03:15:57;;;;;;;10.55;6.55;;;19.50;99.90;;;;;;5075792;28;19920;-60
2022/07/23 03:18:24;;;;;;;8.10;6.05;;;19.50;99.90;;;;;;5084895;28;20044;-60
2022/07/23 03:20:51;;;;;;;15.38;7.25;;;19.50;99.90;;;;;;5091450;28;20040;-61
2022/07/23 03:23:17;;;;;;;9.45;6.95;;;19.50;99.90;;;;;;5075346;28;20054;-60
2022/07/23 03:25:46;;;;;;;8.32;6.45;;;19.50;99.90;;;;;;5072220;28;20071;-60
2022/07/23 03:28:19;;;;;;;9.98;6.57;;;19.50;99.90;;;;;;5066978;28;20492;-60
2022/07/23 03:30:48;;;;;;;10.90;6.28;;;19.50;99.90;;;;;;5093384;28;20141;-60
2022/07/23 03:33:19;;;;;;;9.32;6.88;;;19.50;99.90;;;;;;5075361;28;20048;-60
2022/07/23 03:35:47;;;;;;;9.50;6.70;;;19.50;99.90;;;;;;5072187;28;20090;-60
2022/07/23 03:38:24;;;;;;;12.93;6.97;;;19.60;99.90;;;;;;5066747;28;20051;-60
2022/07/23 03:40:52;;;;;;;8.77;7.10;;;19.50;99.90;;;;;;5074634;28;20040;-60
2022/07/23 03:43:19;;;;;;;12.95;7.55;;;19.50;99.90;;;;;;5075199;28;20040;-61
2022/07/23 03:45:46;;;;;;;10.52;7.65;;;19.50;99.90;;;;;;5073513;28;20040;-61
2022/07/23 03:48:13;;;;;;;8.98;6.65;;;19.50;99.90;;;;;;5067773;28;20055;-60
2022/07/23 03:50:40;;;;;;;10.48;7.53;;;19.50;99.90;;;;;;5074498;28;20162;-61
2022/07/23 03:53:07;;;;;;;9.57;7.38;;;19.50;99.90;;;;;;5075028;28;20090;-60
2022/07/23 03:55:34;;;;;;;12.02;7.28;;;19.50;99.90;;;;;;5074181;28;20412;-60
2022/07/23 03:58:01;;;;;;;9.60;7.57;;;19.60;99.90;;;;;;5066602;28;20047;-60
2022/07/23 04:00:28;;;;;;;9.52;7.38;;;19.60;99.90;;;;;;5071001;28;20489;-61
2022/07/23 04:02:55;;;;;;;13.70;8.00;;;19.60;99.90;;;;;;5069391;28;20033;-60
2022/07/23 04:05:22;;;;;;;11.73;7.63;;;19.60;99.90;;;;;;5071094;28;20135;-60
2022/07/23 04:07:53;;;;;;;11.07;7.68;;;19.60;99.90;;;;;;5071451;28;20052;-60
2022/07/23 04:10:20;;;;;;;10.15;6.78;;;19.60;99.90;;;;;;5070725;28;20652;-60
2022/07/23 04:12:47;;;;;;;9.95;6.78;;;19.60;99.90;;;;;;5070681;28;20052;-61
2022/07/23 04:15:14;;;;;;;9.18;5.90;;;19.60;99.90;;;;;;5070894;28;20044;-60
2022/07/23 04:17:40;;;;;;;9.10;6.72;;;19.50;99.90;;;;;;5071201;28;20532;-59
2022/07/23 04:20:08;;;;;;;9.27;6.97;;;19.50;99.90;;;;;;5069380;28;20036;-60
2022/07/23 04:22:42;;;;;;;12.02;7.43;;;19.50;99.90;;;;;;5067945;28;20048;-60
2022/07/23 04:25:09;;;;;;;11.00;7.72;;;19.40;99.90;;;;;;5070906;28;20044;-60
2022/07/23 04:27:37;;;;;;;9.70;7.90;;;19.40;99.90;;;;;;5070857;28;20070;-60
2022/07/23 04:30:04;;;;;;;10.27;7.18;;;19.30;99.90;;;;;;5070896;28;20040;-60
2022/07/23 04:32:31;;;;;;;11.45;7.25;;;19.20;99.90;;;;;;5070723;28;20044;-60
2022/07/23 04:34:58;;;;;;;11.05;7.38;;;19.10;99.90;;;;;;5070685;28;20051;-60
2022/07/23 04:37:25;;;;;;;11.07;7.32;;;19.10;99.90;;;;;;5070305;28;20412;-60
2022/07/23 04:39:52;;;;;;;10.85;7.63;;;19.00;99.90;;;;;;5071352;28;20405;-61
2022/07/23 04:42:19;;;;;;;13.95;8.57;;;18.80;99.90;;;;;;5070671;28;20044;-60
2022/07/23 04:44:46;;;;;;;12.70;7.90;;;18.80;99.90;;;;;;5070512;28;20591;-60
2022/07/23 04:47:14;;;;;;;14.02;9.43;;;18.70;99.90;;;;;;5070069;28;20048;-60
2022/07/23 04:49:43;;;;;;;13.27;8.85;;;18.60;99.90;;;;;;5070165;28;20060;-60
2022/07/23 04:52:10;;;;;;;12.60;9.07;;;18.50;99.90;;;;;;5070312;28;20066;-60
2022/07/23 04:54:37;;;;;;;;;;;18.50;99.90;;;;;;5070893;28;20036;-61
2022/07/23 04:57:04;;;;;;;13.07;9.10;;;18.50;99.90;;;;;;5069528;28;19935;-60
2022/07/23 04:59:31;;;;;;;13.90;9.07;;;18.40;99.90;;;;;;5070179;28;20048;-60
2022/07/23 05:02:02;;;;;;;12.55;8.77;;;18.50;99.90;;;;;;5069823;28;20047;-60
2022/07/23 05:04:31;;;;;;;15.15;9.48;;;18.50;99.90;;;;;;5070165;28;20394;-60
2022/07/23 05:06:58;;;;;;;13.65;8.93;;;18.50;99.90;;;;;;5069715;28;20072;-60
2022/07/23 05:09:26;;;;;;;15.32;10.63;;;18.40;99.90;;;;;;5069794;28;20192;-60
2022/07/23 05:11:53;;;;;;;;;;;18.50;99.90;;;;;;5070321;28;20052;-60
2022/07/23 05:14:21;;;;;;;13.95;9.73;;;18.50;99.90;;;;;;5069669;28;19931;-60
2022/07/23 05:16:48;;;;;;;12.45;8.40;;;18.50;99.90;;;;;;5070166;28;20051;-60
2022/07/23 05:19:22;;;;;;;9.77;7.47;;;18.50;99.90;;;;;;5070337;28;20093;-60
2022/07/23 05:21:52;;;;;;;9.43;7.25;;;18.50;99.90;;;;;;5069522;28;20409;-60
2022/07/23 05:24:18;;;;;;;9.32;7.20;;;18.60;99.90;;;;;;5069791;28;20461;-60
2022/07/23 05:26:45;;;;;;;11.10;7.50;;;18.70;99.90;;;;;;5070028;28;20056;-60
2022/07/23 05:29:12;;;;;;;13.05;8.48;;;18.70;99.90;;;;;;5070032;28;20040;-60
2022/07/23 05:31:39;;;;;;;10.95;8.38;;;18.70;99.90;;;;;;5070903;28;20540;-60
2022/07/23 05:34:06;;;;;;;11.38;8.50;;;18.70;99.90;;;;;;5052592;28;20497;-60
2022/07/23 05:36:34;;;;;;;12.00;8.10;;;18.70;99.90;;;;;;5069927;28;20051;-60
2022/07/23 05:39:02;;;;;;;10.15;8.40;;;18.70;99.90;;;;;;5069883;28;20496;-61
2022/07/23 05:41:33;;;;;;;12.05;8.95;;;18.70;99.90;;;;;;5053763;28;20781;-60
2022/07/23 05:44:02;;;;;;;15.48;8.90;;;18.70;99.90;;;;;;5052867;28;20132;-60
2022/07/23 05:46:29;;;;;;;15.73;8.68;;;18.60;99.90;;;;;;5068396;28;20051;-60
2022/07/23 05:49:02;;;;;;;12.88;8.35;;;18.60;99.90;;;;;;5069007;28;20040;-60
2022/07/23 05:51:57;;;;;;;10.45;7.85;;;18.60;99.90;;;;;;5069498;28;20048;-60
2022/07/23 05:54:35;;;;;;;14.20;8.63;;;18.70;99.90;;;;;;5070193;28;20139;-60
2022/07/23 05:57:03;;;;;;;13.80;7.82;;;18.70;99.90;;;;;;5069909;28;20037;-60
2022/07/23 05:59:30;;;;;;;13.07;8.45;;;18.70;99.90;;;;;;5085263;22;20047;-63
2022/07/23 06:02:35;;;;;;;11.57;8.07;;;18.80;99.90;;;;;;5053510;28;20118;-61
2022/07/23 06:05:02;;;;;;;11.02;7.95;;;18.90;99.90;;;;;;5063374;28;20083;-63
2022/07/23 06:07:31;;;;;;;11.43;7.72;;;19.10;99.90;;;;;;5061403;28;20036;-62
2022/07/23 06:09:58;;;;;;;14.10;6.63;;;19.20;99.90;;;;;;5039715;28;20406;-62
2022/07/23 06:12:25;;;;;;;10.68;7.15;;;19.30;99.90;;;;;;5049641;28;20127;-64
2022/07/23 06:14:53;;;;;;;9.00;7.07;;;19.40;99.90;;;;;;5033902;28;20501;-62
2022/07/23 06:17:20;;;;;;;9.95;7.65;;;19.40;99.90;;;;;;5030383;28;20049;-62
2022/07/23 06:19:46;;;;;;;8.38;6.28;;;19.30;99.90;;;;;;5044225;28;20047;-62
2022/07/23 06:22:15;;;;;;;8.88;6.35;;;19.20;99.90;;;;;;5052149;28;20083;-63
2022/07/23 06:24:42;;;;;;;10.80;6.72;;;19.10;99.90;;;;;;5036186;28;20144;-63
2022/07/23 06:27:08;;;;;;;8.68;7.00;;;19.10;99.90;;;;;;5050992;28;20052;-61
2022/07/23 06:29:35;;;;;;;11.52;7.63;;;19.10;99.90;;;;;;5035519;28;20043;-63
2022/07/23 06:32:02;;;;;;;9.73;6.88;;;19.10;99.90;;;;;;5052020;28;20060;-62
2022/07/23 06:34:29;;;;;;;10.93;7.10;;;19.00;99.90;;;;;;5050658;28;20063;-61
2022/07/23 06:36:56;;;;;;;8.38;6.32;;;19.10;99.90;;;;;;5050781;28;20124;-61
2022/07/23 06:39:22;;;;;;;8.05;6.03;;;19.00;99.90;;;;;;5035811;28;20063;-61
2022/07/23 06:41:50;;;;;;;12.63;6.50;;;19.10;99.90;;;;;;5049089;28;20131;-61
2022/07/23 06:44:34;;;;;;;9.45;5.53;;;19.00;99.90;;;;;;5034063;28;20140;-61
2022/07/23 06:47:01;;;;;;;6.57;5.60;;;19.20;99.90;;;;;;5048033;28;20079;-61
2022/07/23 06:49:27;;;;;;;7.25;5.60;;;19.20;99.90;;;;;;5052064;28;20051;-61
2022/07/23 06:51:57;;;;;;;8.32;5.65;;;19.20;99.90;;;;;;5042797;28;20088;-61
2022/07/23 06:54:24;;;;;;;9.80;5.72;;;19.30;99.90;;;;;;5019494;28;20047;-61
2022/07/23 06:56:51;;;;;;;9.95;5.85;;;19.30;99.90;;;;;;5053099;28;20064;-61
2022/07/23 06:59:20;;;;;;;8.15;6.43;;;19.40;99.90;;;;;;5047744;28;20034;-61
2022/07/23 07:01:47;;;;;;;7.10;5.55;;;19.20;99.90;;;;;;5048581;28;20074;-62
2022/07/23 07:04:14;;;;;;;7.65;4.85;;;19.30;99.90;;;;;;5053638;28;20041;-62
2022/07/23 07:06:41;;;;;;;8.73;5.43;;;19.40;99.90;;;;;;5052858;28;20049;-61
2022/07/23 07:09:08;;;;;;;8.55;5.50;;;19.40;99.90;;;;;;5050186;28;20041;-62
2022/07/23 07:11:35;;;;;;;8.25;5.50;;;19.40;99.90;;;;;;5050296;28;20065;-61
2022/07/23 07:14:01;;;;;;;10.07;6.25;;;19.40;99.90;;;;;;5053168;28;20049;-62
2022/07/23 07:16:28;;;;;;;7.32;5.43;;;19.40;99.90;;;;;;5052296;28;20052;-62
2022/07/23 07:18:58;;;;;;;9.82;5.60;;;19.50;99.90;;;;;;5044334;28;20449;-62
2022/07/23 07:21:26;;;;;;;8.32;5.57;;;19.40;99.90;;;;;;5038100;28;20132;-61
2022/07/23 07:23:52;;;;;;;7.10;5.68;;;19.30;99.90;;;;;;5033399;28;20041;-62
2022/07/23 07:26:19;;;;;;;8.52;5.25;;;19.30;99.90;;;;;;5039616;28;20449;-61
2022/07/23 07:28:46;;;;;;;12.55;6.30;;;19.40;99.90;;;;;;5044419;28;20053;-62
2022/07/23 07:31:13;;;;;;;8.20;6.47;;;19.40;99.90;;;;;;5052544;28;20049;-62
2022/07/23 07:33:39;;;;;;;10.18;6.15;;;19.40;99.90;;;;;;5053351;28;20041;-62
2022/07/23 07:36:06;;;;;;;10.38;5.85;;;19.40;99.90;;;;;;5052623;28;20045;-61
2022/07/23 07:38:34;;;;;;;9.13;6.80;;;19.40;99.90;;;;;;5044686;28;20504;-62
2022/07/23 07:41:00;;;;;;;9.48;6.80;;;19.50;99.90;;;;;;5052795;28;20505;-62
2022/07/23 07:43:27;;;;;;;9.10;6.03;;;19.60;99.90;;;;;;5053110;28;20088;-63
2022/07/23 07:45:54;;;;;;;10.50;7.03;;;19.70;99.90;;;;;;5043888;28;20053;-62
2022/07/23 07:48:21;;;;;;;9.98;6.50;;;19.70;99.90;;;;;;5053064;28;20057;-61
2022/07/23 07:50:48;;;;;;;9.02;6.15;;;19.70;99.90;;;;;;5052447;28;20072;-62
2022/07/23 07:53:15;;;;;;;;;;;19.80;99.90;;;;;;5052985;28;20115;-63
2022/07/23 07:55:42;;;;;;;9.95;6.47;;;19.80;99.90;;;;;;5041337;28;20392;-63
2022/07/23 07:58:16;;;;;;;8.63;6.18;;;19.80;99.90;;;;;;5052695;28;20037;-63
2022/07/23 08:00:43;;;;;;;11.63;6.07;;;19.80;99.90;;;;;;5051661;28;20044;-62
2022/07/23 08:03:10;;;;;;;7.00;5.70;;;19.70;99.90;;;;;;5048668;28;20387;-63
2022/07/23 08:05:38;;;;;;;;;;;19.80;99.90;;;;;;5044617;28;20069;-63
2022/07/23 08:08:04;;;;;;;10.93;7.65;;;19.80;99.90;;;;;;5032852;28;19921;-63
2022/07/23 08:10:31;;;;;;;9.48;6.20;;;19.70;99.90;;;;;;5032092;28;20049;-62
2022/07/23 08:13:00;;;;;;;8.63;6.05;;;19.70;99.90;;;;;;5040792;28;20074;-63
2022/07/23 08:15:29;;;;;;;9.02;5.75;;;19.70;99.90;;;;;;5044100;28;20486;-63
2022/07/23 08:17:56;;;;;;;8.68;5.95;;;19.70;99.90;;;;;;5051874;28;20394;-62
2022/07/23 08:20:23;;;;;;;;;;;19.70;99.90;;;;;;5051858;28;20045;-63
2022/07/23 08:22:56;;;;;;;13.07;6.50;;;19.80;99.90;;;;;;5051816;28;20027;-63
2022/07/23 08:25:27;;;;;;;12.32;6.82;;;19.70;99.90;;;;;;5043806;28;20294;-63
2022/07/23 08:27:54;;;;;;;8.63;6.20;;;19.70;99.90;;;;;;5052150;28;20049;-63
2022/07/23 08:30:22;;;;;;;7.88;6.07;;;19.70;99.90;;;;;;5051087;28;20041;-63
2022/07/23 08:33:13;;;;;;;9.15;6.00;;;19.70;99.90;;;;;;5043742;28;20041;-63
2022/07/23 08:36:00;;;;;;;9.25;5.85;;;19.70;99.90;;;;;;5052112;28;20045;-63
2022/07/23 08:38:28;;;;;;;12.65;5.28;;;19.80;99.90;;;;;;5051143;28;20041;-63
2022/07/23 08:40:57;;;;;;;7.97;5.63;;;19.80;99.90;;;;;;5049883;28;20465;-63
2022/07/23 08:43:29;;;;;;;11.88;5.88;;;20.00;99.90;;;;;;5046962;28;20064;-63
2022/07/23 08:45:58;;;;;;;9.13;5.82;;;20.00;99.90;;;;;;5051321;28;20064;-64
2022/07/23 08:48:29;;;;;;;7.15;5.28;;;20.00;99.90;;;;;;5050450;28;20073;-63
2022/07/23 08:50:58;;;;;;;10.63;6.55;;;19.90;99.90;;;;;;5058670;28;20421;-62
2022/07/23 08:53:28;;;;;;;9.48;6.63;;;19.90;99.90;;;;;;5050779;28;20045;-63
2022/07/23 08:55:58;;;;;;;10.30;6.53;;;19.90;99.90;;;;;;5043229;28;20108;-62
2022/07/23 08:58:25;;;;;;;8.18;6.28;;;19.90;99.90;;;;;;5051460;28;20486;-63
2022/07/23 09:00:56;;;;;;;13.13;6.30;;;19.90;99.90;;;;;;5051040;28;20047;-63
2022/07/23 09:03:26;;;;;;;8.68;5.95;;;20.00;99.90;;;;;;5046482;28;20528;-63
2022/07/23 09:05:56;;;;;;;9.35;6.43;;;20.10;99.90;;;;;;5049910;28;20047;-63
2022/07/23 09:08:38;;;;;;;10.00;6.53;;;20.20;99.90;;;;;;5051173;28;20757;-63
2022/07/23 09:11:11;;;;;;;8.18;5.97;;;20.20;99.90;;;;;;5046574;28;20037;-63
2022/07/23 09:13:54;;;;;;;8.68;5.82;;;20.10;99.90;;;;;;5050022;28;20037;-63
2022/07/23 09:16:29;;;;;;;7.85;5.50;;;20.00;99.90;;;;;;5049629;28;20040;-63
2022/07/23 09:18:56;;;;;;;9.60;5.80;;;20.00;99.90;;;;;;5050739;28;20052;-62
2022/07/23 09:21:28;;;;;;;8.05;5.53;;;20.00;99.90;;;;;;5042455;28;20040;-63
2022/07/23 09:23:58;;;;;;;9.13;6.35;;;20.10;99.90;;;;;;5051307;28;20497;-63
2022/07/23 09:26:40;;;;;;;8.43;5.88;;;20.20;99.90;;;;;;5050395;28;20063;-62
2022/07/23 09:29:27;;;;;;;9.00;6.00;;;20.20;99.90;;;;;;5045357;28;20045;-63
2022/07/23 09:31:56;;;;;;;9.60;5.85;;;20.30;99.90;;;;;;5049245;28;20103;-63
2022/07/23 09:34:33;;;;;;;10.68;5.97;;;20.30;99.90;;;;;;5051211;28;20049;-63
2022/07/23 09:37:14;;;;;;;8.27;6.22;;;20.50;99.90;;;;;;5045936;28;20059;-63
2022/07/23 09:39:42;;;;;;;7.75;6.13;;;20.60;99.90;;;;;;5042822;28;20045;-63
2022/07/23 09:42:13;;;;;;;7.97;6.32;;;20.80;99.90;;;;;;5050839;28;20053;-63
2022/07/23 09:44:45;;;;;;;7.38;6.22;;;20.90;99.90;;;;;;5051195;28;20489;-63
2022/07/23 09:47:12;;;;;;;11.00;6.07;;;21.00;99.90;;;;;;5045804;28;20034;-63
2022/07/23 09:49:39;;;;;;;8.40;6.72;;;21.30;99.90;;;;;;5049781;28;20045;-63
2022/07/23 09:52:07;;;;;;;9.38;6.15;;;21.50;99.90;;;;;;5054919;28;20500;-63
2022/07/23 09:54:36;;;;;;;7.22;5.85;;;21.90;99.90;;;;;;5054703;28;20052;-63
2022/07/23 09:57:17;;;;;;;10.45;6.28;;;22.00;99.90;;;;;;5046485;28;20047;-63
2022/07/23 09:59:46;;;;;;;8.15;5.85;;;22.10;99.90;;;;;;5054798;28;20504;-64
2022/07/23 10:02:14;;;;;;;7.93;5.65;;;22.30;99.90;;;;;;5054555;28;20045;-63
2022/07/23 10:05:05;;;;;;;6.88;5.10;;;22.40;99.90;;;;;;5039822;28;20063;-56
2022/07/23 10:08:08;;;;;;;8.57;5.68;;;22.60;99.90;;;;;;5021204;28;20056;-63
2022/07/23 10:10:54;;;;;;;9.00;5.72;;;22.90;99.90;;;;;;5054280;28;20051;-64
2022/07/23 10:16:13;;;;;;;9.48;6.03;;;22.70;99.90;;;;;;5040522;28;20078;-64
2022/07/23 10:18:52;;;;;;;7.43;5.72;;;22.90;99.90;;;;;;5052251;28;20033;-64
2022/07/23 10:21:27;;;;;;;8.75;5.88;;;23.20;99.90;;;;;;5052697;28;20047;-64
2022/07/23 10:24:15;;;;;;;7.88;5.80;;;23.40;99.90;;;;;;5043048;28;20041;-64
2022/07/23 10:26:53;;;;;;;7.78;6.35;;;23.40;99.90;;;;;;5037819;28;20037;-64
2022/07/23 10:29:48;;;;;;;9.95;6.15;;;23.30;99.90;;;;;;5053997;28;20037;-64
2022/07/23 10:32:29;;;;;;;7.30;5.90;;;23.30;99.90;;;;;;5051003;28;20553;-64
2022/07/23 10:35:17;;;;;;;9.50;6.63;;;23.60;99.90;;;;;;5051694;28;20048;-64
2022/07/23 10:37:49;;;;;;;8.57;5.88;;;23.60;99.90;;;;;;5052765;28;20439;-64
2022/07/23 10:40:23;;;;;;;7.78;6.18;;;23.80;99.90;;;;;;5051652;28;20363;-65
2022/07/23 10:42:55;;;;;;;8.18;5.72;;;23.80;99.90;;;;;;5042535;28;20030;-65
2022/07/23 10:45:31;;;;;;;9.10;5.70;;;24.10;99.90;;;;;;5047128;28;20051;-64
2022/07/23 10:48:13;;;;;;;7.90;6.28;;;24.40;99.90;;;;;;5054088;28;20039;-63
2022/07/23 10:50:41;;;;;;;9.27;6.63;;;24.80;99.90;;;;;;5052871;28;20484;-65
2022/07/23 10:53:15;;;;;;;8.43;6.13;;;24.90;99.90;;;;;;5045940;28;20049;-63
2022/07/23 10:55:53;;;;;;;5.63;5.03;;;25.20;99.90;;;;;;5051918;28;20049;-63
2022/07/23 10:58:20;;;;;;;;;;;25.70;99.90;;;;;;5047853;28;20055;-65
2022/07/23 11:00:48;;;;;;;7.80;5.55;;;25.50;99.90;;;;;;5052256;28;19921;-64
2022/07/23 11:03:32;;;;;;;6.45;5.68;;;25.50;99.90;;;;;;5046333;28;20060;-65
2022/07/23 11:05:59;;;;;;;8.25;5.97;;;25.70;99.90;;;;;;5042212;28;20045;-65
2022/07/23 11:08:25;;;;;;;;;;;25.80;99.90;;;;;;5048229;28;20059;-65
2022/07/23 11:10:54;;;;;;;10.30;5.80;;;25.90;99.90;;;;;;5043210;28;19925;-63
2022/07/23 11:13:38;;;;;;;8.00;5.70;;;26.10;99.90;;;;;;5051800;28;20063;-63
2022/07/23 11:16:10;;;;;;;9.65;5.85;;;26.40;99.90;;;;;;5046515;28;20044;-63
2022/07/23 11:18:40;;;;;;;6.55;5.80;;;26.40;99.90;;;;;;5049568;28;20041;-63
2022/07/23 11:21:29;;;;;;;6.30;4.97;;;26.30;99.90;;;;;;5050045;28;20041;-63
2022/07/23 11:24:49;;;;;;;6.30;4.55;;;26.10;99.90;;;;;;5043554;28;20041;-63
2022/07/23 11:27:40;;;;;;;5.28;4.57;;;25.80;99.90;;;;;;5004634;28;20050;-65
2022/07/23 11:30:09;;;;;;;7.53;4.47;;;25.50;99.90;;;;;;5036968;28;20525;-63
2022/07/23 11:32:41;;;;;;;8.10;4.97;;;25.30;99.90;;;;;;5053020;28;20045;-63
2022/07/23 11:35:27;;;;;;;7.28;4.47;;;25.10;99.90;;;;;;5048727;28;20127;-63
2022/07/23 11:38:04;;;;;;;6.30;4.20;;;25.00;99.90;;;;;;5044076;28;20127;-63
2022/07/23 11:40:31;;;;;;;5.32;4.30;;;25.10;99.90;;;;;;5052353;28;20064;-63
2022/07/23 11:42:59;;;;;;;;;;;25.10;99.90;;;;;;5052338;28;20119;-64
2022/07/23 11:45:33;;;;;;;7.95;5.30;;;25.20;99.90;;;;;;5052292;28;19920;-64
2022/07/23 11:48:00;;;;;;;8.35;5.40;;;25.20;99.90;;;;;;5049561;28;20140;-63
2022/07/23 11:50:27;;;;;;;8.25;5.03;;;25.20;99.90;;;;;;5047744;28;20065;-63
2022/07/23 11:52:54;;;;;;;;;;;25.30;99.90;;;;;;5052909;28;20041;-63
2022/07/23 11:55:21;;;;;;;7.05;5.00;;;25.40;99.90;;;;;;5052090;28;19944;-64
2022/07/23 11:57:51;;;;;;;8.57;5.28;;;25.50;99.90;;;;;;5038212;28;20490;-64
2022/07/23 12:00:30;;;;;;;6.40;5.28;;;25.50;99.90;;;;;;5048632;28;20422;-64
2022/07/23 12:03:02;;;;;;;6.82;4.97;;;25.50;99.90;;;;;;5052075;28;20124;-63
2022/07/23 12:05:35;;;;;;;5.50;4.88;;;25.60;99.90;;;;;;5047534;28;20041;-64
2022/07/23 12:08:05;;;;;;;7.78;5.25;;;25.60;99.90;;;;;;5052238;28;20048;-64
2022/07/23 12:10:38;;;;;;;6.90;5.53;;;25.60;99.90;;;;;;5044888;28;20033;-64
2022/07/23 12:13:07;;;;;;;6.55;4.93;;;25.90;99.90;;;;;;5046974;28;20070;-64
2022/07/23 12:15:38;;;;;;;9.15;5.10;;;26.20;99.90;;;;;;5043310;28;20566;-63
2022/07/23 12:18:07;;;;;;;5.20;4.65;;;26.70;99.90;;;;;;5050151;28;20146;-64
2022/07/23 12:23:38;;;;;;;6.78;5.18;;;27.40;99.90;;;;;;5068933;28;20044;-62
2022/07/23 12:26:06;;;;;;;8.23;5.32;;;27.40;99.90;;;;;;5070014;28;20382;-62
2022/07/23 12:28:35;;;;;;;7.07;5.60;;;27.50;99.90;;;;;;5070646;28;20036;-62
2022/07/23 12:31:02;;;;;;;8.85;5.80;;;27.60;99.90;;;;;;5071256;28;20053;-61
2022/07/23 12:33:33;;;;;;;8.40;5.82;;;27.60;99.90;;;;;;5051390;28;20504;-62
2022/07/23 12:36:06;;;;;;;7.82;5.53;;;27.50;99.90;;;;;;5066483;28;20045;-61
2022/07/23 12:38:48;;;;;;;7.60;5.97;;;27.30;99.90;;;;;;5055826;28;20029;-61
2022/07/23 12:41:15;;;;;;;6.38;5.20;;;27.20;99.90;;;;;;5042248;28;20064;-61
2022/07/23 12:43:45;;;;;;;6.70;5.32;;;27.10;99.90;;;;;;5054725;28;20054;-62
2022/07/23 12:46:14;;;;;;;6.25;5.38;;;27.10;99.90;;;;;;5054347;28;20056;-61
2022/07/23 12:48:50;;;;;;;5.53;4.97;;;27.00;99.90;;;;;;5060536;28;20546;-61
2022/07/23 12:51:27;;;;;;;6.78;5.55;;;27.40;99.90;;;;;;5056876;28;20119;-61
2022/07/23 12:53:57;;;;;;;6.82;5.75;;;27.60;99.90;;;;;;5062435;28;20383;-61
2022/07/23 12:56:31;;;;;;;5.72;4.60;;;28.00;99.90;;;;;;5060820;28;20516;-61
2022/07/23 12:59:06;;;;;;;7.55;5.00;;;28.10;99.90;;;;;;5051374;28;20045;-61
2022/07/23 13:01:36;;;;;;;5.70;4.43;;;28.30;99.90;;;;;;5052835;28;20040;-61
2022/07/23 13:04:04;;;;;;;6.43;4.63;;;28.20;99.90;;;;;;5055057;28;20044;-60
2022/07/23 13:06:46;;;;;;;7.00;4.97;;;27.90;99.90;;;;;;5059213;28;20036;-61
2022/07/23 13:09:16;;;;;;;8.05;5.28;;;27.50;99.90;;;;;;5051218;28;20044;-61